sensor_id;sensor_type;location;lat;lon;timestamp;P1;durP1;ratioP1;P2;durP2;ratioP2
50591;SDS011;36548;50.506;30.834;2022-12-28T00:00:37;5.20;;;2.93;;
50591;SDS011;36548;50.506;30.834;2022-12-28T00:01:47;6.90;;;3.27;;
50591;SDS011;36548;50.506;30.834;2022-12-28T00:02:56;6.03;;;3.03;;
50591;SDS011;36548;50.506;30.834;2022-12-28T00:04:05;6.85;;;3.73;;
50591;SDS011;36548;50.506;30.834;2022-12-28T00:05:14;5.90;;;3.48;;
50591;SDS011;36548;50.506;30.834;2022-12-28T00:06:31;6.30;;;3.05;;
50591;SDS011;36548;50.506;30.834;2022-12-28T00:07:41;6.55;;;3.15;;
50591;SDS011;36548;50.506;30.834;2022-12-28T00:08:54;5.67;;;3.28;;
50591;SDS011;36548;50.506;30.834;2022-12-28T00:10:04;6.75;;;3.25;;
50591;SDS011;36548;50.506;30.834;2022-12-28T00:11:15;6.93;;;3.67;;
50591;SDS011;36548;50.506;30.834;2022-12-28T00:12:34;10.83;;;3.95;;
50591;SDS011;36548;50.506;30.834;2022-12-28T00:13:44;5.67;;;3.62;;
50591;SDS011;36548;50.506;30.834;2022-12-28T00:14:53;8.97;;;3.95;;
50591;SDS011;36548;50.506;30.834;2022-12-28T00:16:09;8.65;;;4.38;;
50591;SDS011;36548;50.506;30.834;2022-12-28T00:17:26;7.55;;;4.10;;
50591;SDS011;36548;50.506;30.834;2022-12-28T00:18:37;7.35;;;4.50;;
50591;SDS011;36548;50.506;30.834;2022-12-28T00:19:46;8.20;;;3.65;;
50591;SDS011;36548;50.506;30.834;2022-12-28T00:21:00;8.75;;;4.30;;
50591;SDS011;36548;50.506;30.834;2022-12-28T00:22:09;8.72;;;4.28;;
50591;SDS011;36548;50.506;30.834;2022-12-28T00:23:19;7.55;;;4.40;;
50591;SDS011;36548;50.506;30.834;2022-12-28T00:24:28;7.13;;;4.45;;
50591;SDS011;36548;50.506;30.834;2022-12-28T00:25:38;8.35;;;4.67;;
50591;SDS011;36548;50.506;30.834;2022-12-28T00:26:47;8.30;;;4.35;;
50591;SDS011;36548;50.506;30.834;2022-12-28T00:27:58;7.75;;;3.80;;
50591;SDS011;36548;50.506;30.834;2022-12-28T00:29:07;8.03;;;4.38;;
50591;SDS011;36548;50.506;30.834;2022-12-28T00:30:18;6.10;;;3.80;;
50591;SDS011;36548;50.506;30.834;2022-12-28T00:31:27;6.40;;;4.00;;
50591;SDS011;36548;50.506;30.834;2022-12-28T00:32:38;8.20;;;4.22;;
50591;SDS011;36548;50.506;30.834;2022-12-28T00:33:47;8.78;;;4.15;;
50591;SDS011;36548;50.506;30.834;2022-12-28T00:34:57;5.82;;;3.53;;
50591;SDS011;36548;50.506;30.834;2022-12-28T00:36:08;9.80;;;4.22;;
50591;SDS011;36548;50.506;30.834;2022-12-28T00:37:20;7.95;;;3.57;;
50591;SDS011;36548;50.506;30.834;2022-12-28T00:38:29;8.62;;;3.17;;
50591;SDS011;36548;50.506;30.834;2022-12-28T00:39:40;6.88;;;3.52;;
50591;SDS011;36548;50.506;30.834;2022-12-28T00:40:50;8.90;;;3.80;;
50591;SDS011;36548;50.506;30.834;2022-12-28T00:41:59;6.08;;;3.17;;
50591;SDS011;36548;50.506;30.834;2022-12-28T00:44:20;6.92;;;3.38;;
50591;SDS011;36548;50.506;30.834;2022-12-28T00:45:30;6.88;;;3.13;;
50591;SDS011;36548;50.506;30.834;2022-12-28T00:46:39;5.90;;;3.30;;
50591;SDS011;36548;50.506;30.834;2022-12-28T00:47:48;4.97;;;2.93;;
50591;SDS011;36548;50.506;30.834;2022-12-28T00:48:56;6.90;;;3.50;;
50591;SDS011;36548;50.506;30.834;2022-12-28T00:50:08;3.70;;;2.50;;
50591;SDS011;36548;50.506;30.834;2022-12-28T00:51:18;6.70;;;3.60;;
50591;SDS011;36548;50.506;30.834;2022-12-28T00:52:30;6.60;;;3.15;;
50591;SDS011;36548;50.506;30.834;2022-12-28T00:53:40;5.68;;;3.67;;
50591;SDS011;36548;50.506;30.834;2022-12-28T00:54:49;6.65;;;3.42;;
50591;SDS011;36548;50.506;30.834;2022-12-28T00:56:09;7.93;;;4.25;;
50591;SDS011;36548;50.506;30.834;2022-12-28T00:58:29;5.27;;;3.63;;
50591;SDS011;36548;50.506;30.834;2022-12-28T00:59:39;6.48;;;3.87;;
50591;SDS011;36548;50.506;30.834;2022-12-28T01:00:48;6.10;;;3.18;;
50591;SDS011;36548;50.506;30.834;2022-12-28T01:02:03;7.65;;;4.05;;
50591;SDS011;36548;50.506;30.834;2022-12-28T01:03:12;5.98;;;3.48;;
50591;SDS011;36548;50.506;30.834;2022-12-28T01:04:21;7.03;;;3.22;;
50591;SDS011;36548;50.506;30.834;2022-12-28T01:05:30;9.05;;;4.05;;
50591;SDS011;36548;50.506;30.834;2022-12-28T01:06:40;8.43;;;3.78;;
50591;SDS011;36548;50.506;30.834;2022-12-28T01:07:49;6.20;;;3.62;;
50591;SDS011;36548;50.506;30.834;2022-12-28T01:11:27;6.68;;;3.28;;
50591;SDS011;36548;50.506;30.834;2022-12-28T01:12:37;7.73;;;3.55;;
50591;SDS011;36548;50.506;30.834;2022-12-28T01:13:47;8.10;;;3.43;;
50591;SDS011;36548;50.506;30.834;2022-12-28T01:14:58;9.10;;;3.50;;
50591;SDS011;36548;50.506;30.834;2022-12-28T01:16:24;7.42;;;3.75;;
50591;SDS011;36548;50.506;30.834;2022-12-28T01:17:36;6.35;;;3.68;;
50591;SDS011;36548;50.506;30.834;2022-12-28T01:18:58;7.87;;;4.05;;
50591;SDS011;36548;50.506;30.834;2022-12-28T01:20:09;6.90;;;3.55;;
50591;SDS011;36548;50.506;30.834;2022-12-28T01:21:20;6.47;;;2.85;;
50591;SDS011;36548;50.506;30.834;2022-12-28T01:22:30;10.28;;;4.20;;
50591;SDS011;36548;50.506;30.834;2022-12-28T01:23:41;5.72;;;3.38;;
50591;SDS011;36548;50.506;30.834;2022-12-28T01:24:53;8.23;;;3.78;;
50591;SDS011;36548;50.506;30.834;2022-12-28T01:26:03;7.00;;;3.72;;
50591;SDS011;36548;50.506;30.834;2022-12-28T01:27:13;7.40;;;4.15;;
50591;SDS011;36548;50.506;30.834;2022-12-28T01:28:23;8.97;;;3.85;;
50591;SDS011;36548;50.506;30.834;2022-12-28T01:29:31;6.08;;;4.22;;
50591;SDS011;36548;50.506;30.834;2022-12-28T01:30:41;8.30;;;4.20;;
50591;SDS011;36548;50.506;30.834;2022-12-28T01:31:51;6.30;;;3.67;;
50591;SDS011;36548;50.506;30.834;2022-12-28T01:32:59;5.45;;;3.50;;
50591;SDS011;36548;50.506;30.834;2022-12-28T01:34:09;4.45;;;3.30;;
50591;SDS011;36548;50.506;30.834;2022-12-28T01:35:18;6.17;;;3.13;;
50591;SDS011;36548;50.506;30.834;2022-12-28T01:36:28;5.03;;;2.77;;
50591;SDS011;36548;50.506;30.834;2022-12-28T01:37:40;7.78;;;3.13;;
50591;SDS011;36548;50.506;30.834;2022-12-28T01:38:53;6.08;;;2.90;;
50591;SDS011;36548;50.506;30.834;2022-12-28T01:40:05;6.80;;;3.95;;
50591;SDS011;36548;50.506;30.834;2022-12-28T01:41:21;7.37;;;3.85;;
50591;SDS011;36548;50.506;30.834;2022-12-28T01:45:14;6.50;;;3.70;;
50591;SDS011;36548;50.506;30.834;2022-12-28T01:46:39;6.32;;;3.63;;
50591;SDS011;36548;50.506;30.834;2022-12-28T01:47:56;9.42;;;4.72;;
50591;SDS011;36548;50.506;30.834;2022-12-28T01:49:07;6.03;;;4.50;;
50591;SDS011;36548;50.506;30.834;2022-12-28T01:50:19;7.15;;;3.88;;
50591;SDS011;36548;50.506;30.834;2022-12-28T01:51:32;7.30;;;4.07;;
50591;SDS011;36548;50.506;30.834;2022-12-28T01:54:06;8.20;;;4.28;;
50591;SDS011;36548;50.506;30.834;2022-12-28T01:55:33;8.95;;;4.25;;
50591;SDS011;36548;50.506;30.834;2022-12-28T01:59:15;8.35;;;3.90;;
50591;SDS011;36548;50.506;30.834;2022-12-28T02:00:26;8.72;;;5.00;;
50591;SDS011;36548;50.506;30.834;2022-12-28T02:01:36;6.37;;;3.62;;
50591;SDS011;36548;50.506;30.834;2022-12-28T02:02:51;4.55;;;2.85;;
50591;SDS011;36548;50.506;30.834;2022-12-28T02:04:07;7.02;;;3.52;;
50591;SDS011;36548;50.506;30.834;2022-12-28T02:05:16;6.15;;;2.90;;
50591;SDS011;36548;50.506;30.834;2022-12-28T02:06:26;5.40;;;2.92;;
50591;SDS011;36548;50.506;30.834;2022-12-28T02:07:40;6.37;;;3.13;;
50591;SDS011;36548;50.506;30.834;2022-12-28T02:09:01;7.10;;;3.12;;
50591;SDS011;36548;50.506;30.834;2022-12-28T02:10:16;5.67;;;3.18;;
50591;SDS011;36548;50.506;30.834;2022-12-28T02:11:29;9.93;;;3.62;;
50591;SDS011;36548;50.506;30.834;2022-12-28T02:12:38;8.47;;;4.52;;
50591;SDS011;36548;50.506;30.834;2022-12-28T02:13:49;7.40;;;3.68;;
50591;SDS011;36548;50.506;30.834;2022-12-28T02:15:00;6.67;;;3.92;;
50591;SDS011;36548;50.506;30.834;2022-12-28T02:16:10;7.60;;;3.90;;
50591;SDS011;36548;50.506;30.834;2022-12-28T02:17:26;5.87;;;4.05;;
50591;SDS011;36548;50.506;30.834;2022-12-28T02:18:35;8.23;;;4.50;;
50591;SDS011;36548;50.506;30.834;2022-12-28T02:19:47;9.95;;;4.80;;
50591;SDS011;36548;50.506;30.834;2022-12-28T02:26:55;6.97;;;4.40;;
50591;SDS011;36548;50.506;30.834;2022-12-28T02:30:55;7.63;;;5.38;;
50591;SDS011;36548;50.506;30.834;2022-12-28T02:36:15;6.93;;;3.40;;
50591;SDS011;36548;50.506;30.834;2022-12-28T02:37:37;5.73;;;3.52;;
50591;SDS011;36548;50.506;30.834;2022-12-28T02:39:01;4.27;;;2.97;;
50591;SDS011;36548;50.506;30.834;2022-12-28T02:40:10;6.68;;;3.53;;
50591;SDS011;36548;50.506;30.834;2022-12-28T02:41:23;7.62;;;3.77;;
50591;SDS011;36548;50.506;30.834;2022-12-28T02:42:34;6.75;;;3.85;;
50591;SDS011;36548;50.506;30.834;2022-12-28T02:43:45;7.10;;;4.25;;
50591;SDS011;36548;50.506;30.834;2022-12-28T02:44:55;8.92;;;4.18;;
50591;SDS011;36548;50.506;30.834;2022-12-28T02:46:44;9.12;;;4.60;;
50591;SDS011;36548;50.506;30.834;2022-12-28T02:48:13;6.28;;;3.80;;
50591;SDS011;36548;50.506;30.834;2022-12-28T02:49:42;9.08;;;4.93;;
50591;SDS011;36548;50.506;30.834;2022-12-28T02:57:10;8.23;;;5.32;;
50591;SDS011;36548;50.506;30.834;2022-12-28T02:58:29;7.50;;;4.80;;
50591;SDS011;36548;50.506;30.834;2022-12-28T03:05:43;8.42;;;4.10;;
50591;SDS011;36548;50.506;30.834;2022-12-28T03:09:00;4.98;;;3.06;;
50591;SDS011;36548;50.506;30.834;2022-12-28T03:11:51;6.13;;;3.42;;
50591;SDS011;36548;50.506;30.834;2022-12-28T03:13:03;6.65;;;3.60;;
50591;SDS011;36548;50.506;30.834;2022-12-28T03:14:31;6.10;;;3.66;;
50591;SDS011;36548;50.506;30.834;2022-12-28T03:15:48;5.97;;;4.27;;
50591;SDS011;36548;50.506;30.834;2022-12-28T03:16:57;5.92;;;4.47;;
50591;SDS011;36548;50.506;30.834;2022-12-28T03:18:23;6.60;;;3.90;;
50591;SDS011;36548;50.506;30.834;2022-12-28T03:19:59;8.05;;;4.95;;
50591;SDS011;36548;50.506;30.834;2022-12-28T03:21:28;7.60;;;4.35;;
50591;SDS011;36548;50.506;30.834;2022-12-28T03:22:58;8.50;;;5.00;;
50591;SDS011;36548;50.506;30.834;2022-12-28T03:24:28;6.55;;;4.20;;
50591;SDS011;36548;50.506;30.834;2022-12-28T03:26:00;8.23;;;5.22;;
50591;SDS011;36548;50.506;30.834;2022-12-28T03:27:31;5.17;;;4.02;;
50591;SDS011;36548;50.506;30.834;2022-12-28T03:29:03;7.37;;;3.87;;
50591;SDS011;36548;50.506;30.834;2022-12-28T03:30:33;6.62;;;3.95;;
50591;SDS011;36548;50.506;30.834;2022-12-28T03:32:04;5.25;;;3.60;;
50591;SDS011;36548;50.506;30.834;2022-12-28T03:33:16;4.45;;;2.70;;
50591;SDS011;36548;50.506;30.834;2022-12-28T03:34:25;7.00;;;3.43;;
50591;SDS011;36548;50.506;30.834;2022-12-28T03:35:45;7.92;;;4.10;;
50591;SDS011;36548;50.506;30.834;2022-12-28T03:38:43;5.10;;;3.75;;
50591;SDS011;36548;50.506;30.834;2022-12-28T03:41:13;6.25;;;4.13;;
50591;SDS011;36548;50.506;30.834;2022-12-28T03:42:33;8.12;;;4.74;;
50591;SDS011;36548;50.506;30.834;2022-12-28T03:44:17;7.15;;;4.55;;
50591;SDS011;36548;50.506;30.834;2022-12-28T03:45:43;7.72;;;4.40;;
50591;SDS011;36548;50.506;30.834;2022-12-28T03:47:04;8.77;;;4.80;;
50591;SDS011;36548;50.506;30.834;2022-12-28T03:48:17;5.02;;;4.44;;
50591;SDS011;36548;50.506;30.834;2022-12-28T03:49:28;8.12;;;4.20;;
50591;SDS011;36548;50.506;30.834;2022-12-28T03:50:39;6.72;;;4.80;;
50591;SDS011;36548;50.506;30.834;2022-12-28T03:51:55;5.38;;;3.95;;
50591;SDS011;36548;50.506;30.834;2022-12-28T03:53:05;4.20;;;3.50;;
50591;SDS011;36548;50.506;30.834;2022-12-28T03:54:18;6.95;;;3.30;;
50591;SDS011;36548;50.506;30.834;2022-12-28T03:55:28;4.44;;;3.36;;
50591;SDS011;36548;50.506;30.834;2022-12-28T03:57:49;6.60;;;3.50;;
50591;SDS011;36548;50.506;30.834;2022-12-28T03:59:00;4.03;;;3.47;;
50591;SDS011;36548;50.506;30.834;2022-12-28T04:00:18;7.37;;;3.53;;
50591;SDS011;36548;50.506;30.834;2022-12-28T04:01:30;6.45;;;4.17;;
50591;SDS011;36548;50.506;30.834;2022-12-28T04:02:39;6.27;;;3.52;;
50591;SDS011;36548;50.506;30.834;2022-12-28T04:03:49;5.80;;;4.07;;
50591;SDS011;36548;50.506;30.834;2022-12-28T04:04:59;5.68;;;3.68;;
50591;SDS011;36548;50.506;30.834;2022-12-28T04:06:10;7.78;;;4.62;;
50591;SDS011;36548;50.506;30.834;2022-12-28T04:07:20;6.50;;;4.78;;
50591;SDS011;36548;50.506;30.834;2022-12-28T04:08:30;8.25;;;5.37;;
50591;SDS011;36548;50.506;30.834;2022-12-28T04:09:41;7.33;;;4.62;;
50591;SDS011;36548;50.506;30.834;2022-12-28T04:10:51;9.23;;;5.25;;
50591;SDS011;36548;50.506;30.834;2022-12-28T04:13:34;7.95;;;4.75;;
50591;SDS011;36548;50.506;30.834;2022-12-28T04:14:51;9.37;;;4.98;;
50591;SDS011;36548;50.506;30.834;2022-12-28T04:16:01;5.92;;;4.02;;
50591;SDS011;36548;50.506;30.834;2022-12-28T04:17:13;7.82;;;3.97;;
50591;SDS011;36548;50.506;30.834;2022-12-28T04:18:23;5.20;;;4.15;;
50591;SDS011;36548;50.506;30.834;2022-12-28T04:19:33;4.63;;;3.52;;
50591;SDS011;36548;50.506;30.834;2022-12-28T04:20:43;5.72;;;3.42;;
50591;SDS011;36548;50.506;30.834;2022-12-28T04:21:52;6.87;;;3.82;;
50591;SDS011;36548;50.506;30.834;2022-12-28T04:23:02;4.42;;;3.48;;
50591;SDS011;36548;50.506;30.834;2022-12-28T04:24:13;4.25;;;3.75;;
50591;SDS011;36548;50.506;30.834;2022-12-28T04:25:23;7.30;;;3.50;;
50591;SDS011;36548;50.506;30.834;2022-12-28T04:26:33;5.37;;;3.88;;
50591;SDS011;36548;50.506;30.834;2022-12-28T04:27:43;6.52;;;4.08;;
50591;SDS011;36548;50.506;30.834;2022-12-28T04:28:54;5.62;;;4.08;;
50591;SDS011;36548;50.506;30.834;2022-12-28T04:30:15;5.98;;;4.32;;
50591;SDS011;36548;50.506;30.834;2022-12-28T04:31:24;8.30;;;4.58;;
50591;SDS011;36548;50.506;30.834;2022-12-28T04:32:37;9.32;;;4.90;;
50591;SDS011;36548;50.506;30.834;2022-12-28T04:33:46;7.57;;;4.77;;
50591;SDS011;36548;50.506;30.834;2022-12-28T04:34:55;7.75;;;5.45;;
50591;SDS011;36548;50.506;30.834;2022-12-28T04:36:05;7.35;;;4.93;;
50591;SDS011;36548;50.506;30.834;2022-12-28T04:37:23;7.35;;;4.88;;
50591;SDS011;36548;50.506;30.834;2022-12-28T04:38:33;6.37;;;4.75;;
50591;SDS011;36548;50.506;30.834;2022-12-28T04:39:43;8.47;;;5.25;;
50591;SDS011;36548;50.506;30.834;2022-12-28T04:40:54;5.20;;;4.62;;
50591;SDS011;36548;50.506;30.834;2022-12-28T04:42:03;7.23;;;3.98;;
50591;SDS011;36548;50.506;30.834;2022-12-28T04:43:13;6.88;;;3.68;;
50591;SDS011;36548;50.506;30.834;2022-12-28T04:44:22;6.32;;;4.38;;
50591;SDS011;36548;50.506;30.834;2022-12-28T04:45:31;6.55;;;4.17;;
50591;SDS011;36548;50.506;30.834;2022-12-28T04:46:40;7.07;;;4.28;;
50591;SDS011;36548;50.506;30.834;2022-12-28T04:47:50;7.87;;;4.10;;
50591;SDS011;36548;50.506;30.834;2022-12-28T04:48:59;7.33;;;4.68;;
50591;SDS011;36548;50.506;30.834;2022-12-28T04:50:10;6.63;;;4.23;;
50591;SDS011;36548;50.506;30.834;2022-12-28T04:51:19;5.40;;;4.08;;
50591;SDS011;36548;50.506;30.834;2022-12-28T04:52:32;6.25;;;4.12;;
50591;SDS011;36548;50.506;30.834;2022-12-28T04:54:52;4.25;;;3.85;;
50591;SDS011;36548;50.506;30.834;2022-12-28T04:56:02;7.20;;;4.95;;
50591;SDS011;36548;50.506;30.834;2022-12-28T04:57:13;9.83;;;5.27;;
50591;SDS011;36548;50.506;30.834;2022-12-28T04:58:23;6.28;;;5.00;;
50591;SDS011;36548;50.506;30.834;2022-12-28T04:59:32;6.93;;;5.00;;
50591;SDS011;36548;50.506;30.834;2022-12-28T05:00:41;5.33;;;4.70;;
50591;SDS011;36548;50.506;30.834;2022-12-28T05:01:51;5.92;;;4.08;;
50591;SDS011;36548;50.506;30.834;2022-12-28T05:03:01;5.45;;;4.15;;
50591;SDS011;36548;50.506;30.834;2022-12-28T05:04:12;7.12;;;4.65;;
50591;SDS011;36548;50.506;30.834;2022-12-28T05:05:22;6.20;;;3.87;;
50591;SDS011;36548;50.506;30.834;2022-12-28T05:06:31;5.65;;;4.03;;
50591;SDS011;36548;50.506;30.834;2022-12-28T05:07:39;6.92;;;4.58;;
50591;SDS011;36548;50.506;30.834;2022-12-28T05:08:48;4.92;;;4.12;;
50591;SDS011;36548;50.506;30.834;2022-12-28T05:09:57;6.48;;;4.67;;
50591;SDS011;36548;50.506;30.834;2022-12-28T05:11:09;9.22;;;5.27;;
50591;SDS011;36548;50.506;30.834;2022-12-28T05:12:20;8.53;;;5.13;;
50591;SDS011;36548;50.506;30.834;2022-12-28T05:13:30;5.98;;;4.17;;
50591;SDS011;36548;50.506;30.834;2022-12-28T05:14:41;4.88;;;3.98;;
50591;SDS011;36548;50.506;30.834;2022-12-28T05:15:52;6.43;;;4.07;;
50591;SDS011;36548;50.506;30.834;2022-12-28T05:17:02;4.63;;;3.63;;
50591;SDS011;36548;50.506;30.834;2022-12-28T05:18:12;4.57;;;3.45;;
50591;SDS011;36548;50.506;30.834;2022-12-28T05:19:21;6.30;;;4.07;;
50591;SDS011;36548;50.506;30.834;2022-12-28T05:20:30;5.40;;;3.70;;
50591;SDS011;36548;50.506;30.834;2022-12-28T05:21:39;6.03;;;4.08;;
50591;SDS011;36548;50.506;30.834;2022-12-28T05:22:49;5.44;;;4.14;;
50591;SDS011;36548;50.506;30.834;2022-12-28T05:23:58;6.17;;;4.43;;
50591;SDS011;36548;50.506;30.834;2022-12-28T05:25:08;11.67;;;6.00;;
50591;SDS011;36548;50.506;30.834;2022-12-28T05:26:19;6.45;;;5.00;;
50591;SDS011;36548;50.506;30.834;2022-12-28T05:27:29;6.70;;;4.82;;
50591;SDS011;36548;50.506;30.834;2022-12-28T05:28:39;5.55;;;4.77;;
50591;SDS011;36548;50.506;30.834;2022-12-28T05:29:48;6.82;;;4.78;;
50591;SDS011;36548;50.506;30.834;2022-12-28T05:30:58;5.17;;;4.25;;
50591;SDS011;36548;50.506;30.834;2022-12-28T05:32:09;4.78;;;3.77;;
50591;SDS011;36548;50.506;30.834;2022-12-28T05:33:20;6.10;;;4.25;;
50591;SDS011;36548;50.506;30.834;2022-12-28T05:34:30;5.45;;;4.15;;
50591;SDS011;36548;50.506;30.834;2022-12-28T05:35:40;5.70;;;4.10;;
50591;SDS011;36548;50.506;30.834;2022-12-28T05:36:49;4.33;;;3.28;;
50591;SDS011;36548;50.506;30.834;2022-12-28T05:37:58;5.53;;;3.87;;
50591;SDS011;36548;50.506;30.834;2022-12-28T05:39:07;5.18;;;3.82;;
50591;SDS011;36548;50.506;30.834;2022-12-28T05:40:17;5.93;;;3.93;;
50591;SDS011;36548;50.506;30.834;2022-12-28T05:41:26;6.60;;;4.60;;
50591;SDS011;36548;50.506;30.834;2022-12-28T05:42:37;6.20;;;5.38;;
50591;SDS011;36548;50.506;30.834;2022-12-28T05:43:47;6.65;;;4.27;;
50591;SDS011;36548;50.506;30.834;2022-12-28T05:46:18;6.63;;;5.17;;
50591;SDS011;36548;50.506;30.834;2022-12-28T05:47:29;6.50;;;4.45;;
50591;SDS011;36548;50.506;30.834;2022-12-28T05:48:39;7.62;;;6.03;;
50591;SDS011;36548;50.506;30.834;2022-12-28T05:51:02;7.88;;;5.62;;
50591;SDS011;36548;50.506;30.834;2022-12-28T05:52:21;6.72;;;5.08;;
50591;SDS011;36548;50.506;30.834;2022-12-28T05:53:31;8.02;;;5.33;;
50591;SDS011;36548;50.506;30.834;2022-12-28T05:54:41;7.77;;;5.35;;
50591;SDS011;36548;50.506;30.834;2022-12-28T05:55:51;8.30;;;4.70;;
50591;SDS011;36548;50.506;30.834;2022-12-28T05:57:00;5.40;;;3.92;;
50591;SDS011;36548;50.506;30.834;2022-12-28T05:58:09;4.58;;;3.60;;
50591;SDS011;36548;50.506;30.834;2022-12-28T05:59:18;5.63;;;3.65;;
50591;SDS011;36548;50.506;30.834;2022-12-28T06:00:27;4.95;;;3.85;;
50591;SDS011;36548;50.506;30.834;2022-12-28T06:01:37;5.55;;;3.10;;
50591;SDS011;36548;50.506;30.834;2022-12-28T06:02:48;4.87;;;3.70;;
50591;SDS011;36548;50.506;30.834;2022-12-28T06:05:15;5.50;;;3.30;;
50591;SDS011;36548;50.506;30.834;2022-12-28T06:06:25;5.83;;;3.30;;
50591;SDS011;36548;50.506;30.834;2022-12-28T06:07:35;7.15;;;4.00;;
50591;SDS011;36548;50.506;30.834;2022-12-28T06:08:47;5.95;;;3.95;;
50591;SDS011;36548;50.506;30.834;2022-12-28T06:09:57;5.56;;;4.52;;
50591;SDS011;36548;50.506;30.834;2022-12-28T06:11:13;5.32;;;4.23;;
50591;SDS011;36548;50.506;30.834;2022-12-28T09:01:05;5.90;;;5.03;;
50591;SDS011;36548;50.506;30.834;2022-12-28T09:02:20;7.54;;;4.50;;
50591;SDS011;36548;50.506;30.834;2022-12-28T09:03:40;7.27;;;4.23;;
50591;SDS011;36548;50.506;30.834;2022-12-28T09:04:48;5.54;;;4.18;;
50591;SDS011;36548;50.506;30.834;2022-12-28T09:06:00;8.15;;;4.20;;
50591;SDS011;36548;50.506;30.834;2022-12-28T09:07:09;9.28;;;4.10;;
50591;SDS011;36548;50.506;30.834;2022-12-28T09:08:19;7.77;;;4.55;;
50591;SDS011;36548;50.506;30.834;2022-12-28T09:09:28;9.75;;;5.00;;
50591;SDS011;36548;50.506;30.834;2022-12-28T09:10:37;8.42;;;4.07;;
50591;SDS011;36548;50.506;30.834;2022-12-28T09:11:46;8.02;;;4.95;;
50591;SDS011;36548;50.506;30.834;2022-12-28T09:12:57;6.50;;;4.70;;
50591;SDS011;36548;50.506;30.834;2022-12-28T09:14:12;6.68;;;4.18;;
50591;SDS011;36548;50.506;30.834;2022-12-28T09:15:25;9.30;;;4.20;;
50591;SDS011;36548;50.506;30.834;2022-12-28T09:16:35;10.85;;;5.20;;
50591;SDS011;36548;50.506;30.834;2022-12-28T09:17:46;9.67;;;4.60;;
50591;SDS011;36548;50.506;30.834;2022-12-28T09:18:56;7.18;;;4.22;;
50591;SDS011;36548;50.506;30.834;2022-12-28T09:20:07;8.62;;;4.63;;
50591;SDS011;36548;50.506;30.834;2022-12-28T09:21:20;7.43;;;4.37;;
50591;SDS011;36548;50.506;30.834;2022-12-28T09:22:30;6.28;;;4.07;;
50591;SDS011;36548;50.506;30.834;2022-12-28T09:23:39;6.32;;;3.87;;
50591;SDS011;36548;50.506;30.834;2022-12-28T09:24:49;6.47;;;3.90;;
50591;SDS011;36548;50.506;30.834;2022-12-28T09:27:22;7.68;;;4.32;;
50591;SDS011;36548;50.506;30.834;2022-12-28T09:28:32;5.43;;;3.68;;
50591;SDS011;36548;50.506;30.834;2022-12-28T09:29:41;7.87;;;5.10;;
50591;SDS011;36548;50.506;30.834;2022-12-28T09:30:50;8.70;;;4.82;;
50591;SDS011;36548;50.506;30.834;2022-12-28T09:31:59;7.27;;;3.87;;
50591;SDS011;36548;50.506;30.834;2022-12-28T09:33:08;6.18;;;3.70;;
50591;SDS011;36548;50.506;30.834;2022-12-28T09:34:36;7.55;;;4.00;;
50591;SDS011;36548;50.506;30.834;2022-12-28T09:35:46;6.92;;;3.77;;
50591;SDS011;36548;50.506;30.834;2022-12-28T09:36:54;7.92;;;4.07;;
50591;SDS011;36548;50.506;30.834;2022-12-28T09:38:03;8.05;;;4.10;;
50591;SDS011;36548;50.506;30.834;2022-12-28T09:39:14;7.15;;;4.18;;
50591;SDS011;36548;50.506;30.834;2022-12-28T09:40:34;7.12;;;3.87;;
50591;SDS011;36548;50.506;30.834;2022-12-28T09:43:12;7.22;;;4.07;;
50591;SDS011;36548;50.506;30.834;2022-12-28T09:45:53;6.95;;;4.25;;
50591;SDS011;36548;50.506;30.834;2022-12-28T09:47:11;6.00;;;3.87;;
50591;SDS011;36548;50.506;30.834;2022-12-28T09:48:27;7.43;;;3.85;;
50591;SDS011;36548;50.506;30.834;2022-12-28T09:49:50;8.57;;;4.17;;
50591;SDS011;36548;50.506;30.834;2022-12-28T09:51:06;7.22;;;3.97;;
50591;SDS011;36548;50.506;30.834;2022-12-28T09:53:35;7.05;;;3.85;;
50591;SDS011;36548;50.506;30.834;2022-12-28T09:54:45;7.87;;;4.57;;
50591;SDS011;36548;50.506;30.834;2022-12-28T09:56:02;6.90;;;4.22;;
50591;SDS011;36548;50.506;30.834;2022-12-28T09:57:16;10.12;;;4.05;;
50591;SDS011;36548;50.506;30.834;2022-12-28T09:58:27;6.32;;;3.58;;
50591;SDS011;36548;50.506;30.834;2022-12-28T09:59:38;10.30;;;5.08;;
50591;SDS011;36548;50.506;30.834;2022-12-28T10:00:48;8.55;;;4.12;;
50591;SDS011;36548;50.506;30.834;2022-12-28T10:02:16;4.63;;;3.53;;
50591;SDS011;36548;50.506;30.834;2022-12-28T10:03:38;7.03;;;4.05;;
50591;SDS011;36548;50.506;30.834;2022-12-28T10:04:49;7.02;;;3.93;;
50591;SDS011;36548;50.506;30.834;2022-12-28T10:05:58;5.88;;;3.98;;
50591;SDS011;36548;50.506;30.834;2022-12-28T10:07:10;8.48;;;4.37;;
50591;SDS011;36548;50.506;30.834;2022-12-28T10:08:21;6.28;;;4.03;;
50591;SDS011;36548;50.506;30.834;2022-12-28T10:09:31;10.08;;;4.33;;
50591;SDS011;36548;50.506;30.834;2022-12-28T10:13:26;6.92;;;3.85;;
50591;SDS011;36548;50.506;30.834;2022-12-28T10:14:39;6.93;;;3.18;;
50591;SDS011;36548;50.506;30.834;2022-12-28T10:15:48;7.08;;;2.95;;
50591;SDS011;36548;50.506;30.834;2022-12-28T10:16:59;4.23;;;2.60;;
50591;SDS011;36548;50.506;30.834;2022-12-28T10:18:08;7.75;;;3.42;;
50591;SDS011;36548;50.506;30.834;2022-12-28T10:19:26;8.55;;;3.85;;
50591;SDS011;36548;50.506;30.834;2022-12-28T10:20:37;7.45;;;3.48;;
50591;SDS011;36548;50.506;30.834;2022-12-28T10:21:51;7.42;;;3.45;;
50591;SDS011;36548;50.506;30.834;2022-12-28T10:23:16;7.70;;;3.60;;
50591;SDS011;36548;50.506;30.834;2022-12-28T10:24:30;7.05;;;3.27;;
50591;SDS011;36548;50.506;30.834;2022-12-28T10:25:40;6.87;;;4.33;;
50591;SDS011;36548;50.506;30.834;2022-12-28T10:26:49;6.63;;;3.68;;
50591;SDS011;36548;50.506;30.834;2022-12-28T10:28:06;7.65;;;3.85;;
50591;SDS011;36548;50.506;30.834;2022-12-28T10:29:18;5.67;;;3.15;;
50591;SDS011;36548;50.506;30.834;2022-12-28T10:31:01;5.55;;;2.80;;
50591;SDS011;36548;50.506;30.834;2022-12-28T10:32:04;6.52;;;3.50;;
50591;SDS011;36548;50.506;30.834;2022-12-28T10:33:20;7.50;;;3.57;;
50591;SDS011;36548;50.506;30.834;2022-12-28T10:34:30;5.70;;;3.15;;
50591;SDS011;36548;50.506;30.834;2022-12-28T10:35:47;7.03;;;3.47;;
50591;SDS011;36548;50.506;30.834;2022-12-28T10:37:04;7.50;;;3.25;;
50591;SDS011;36548;50.506;30.834;2022-12-28T10:38:25;6.75;;;3.22;;
50591;SDS011;36548;50.506;30.834;2022-12-28T10:39:35;5.75;;;2.88;;
50591;SDS011;36548;50.506;30.834;2022-12-28T10:40:45;6.90;;;3.65;;
50591;SDS011;36548;50.506;30.834;2022-12-28T10:42:04;4.92;;;3.18;;
50591;SDS011;36548;50.506;30.834;2022-12-28T10:43:19;6.25;;;3.50;;
50591;SDS011;36548;50.506;30.834;2022-12-28T10:44:30;6.78;;;3.48;;
50591;SDS011;36548;50.506;30.834;2022-12-28T10:45:48;6.32;;;3.17;;
50591;SDS011;36548;50.506;30.834;2022-12-28T10:47:04;7.08;;;3.38;;
50591;SDS011;36548;50.506;30.834;2022-12-28T10:48:20;8.10;;;3.97;;
50591;SDS011;36548;50.506;30.834;2022-12-28T10:49:36;7.33;;;3.55;;
50591;SDS011;36548;50.506;30.834;2022-12-28T10:50:51;7.75;;;3.47;;
50591;SDS011;36548;50.506;30.834;2022-12-28T10:53:31;5.52;;;3.58;;
50591;SDS011;36548;50.506;30.834;2022-12-28T10:54:43;7.75;;;3.30;;
50591;SDS011;36548;50.506;30.834;2022-12-28T10:58:43;7.08;;;3.43;;
50591;SDS011;36548;50.506;30.834;2022-12-28T11:01:29;5.38;;;3.38;;
50591;SDS011;36548;50.506;30.834;2022-12-28T11:02:45;7.52;;;4.37;;
50591;SDS011;36548;50.506;30.834;2022-12-28T11:05:16;6.68;;;3.62;;
50591;SDS011;36548;50.506;30.834;2022-12-28T11:06:22;9.58;;;3.97;;